sensor_id;sensor_type;location;lat;lon;timestamp;temperature;humidity
68217;DHT22;55037;52.354;4.992;2022-07-22T00:01:20;18.00;81.50
68217;DHT22;55037;52.354;4.992;2022-07-22T00:03:47;18.00;81.50
68217;DHT22;55037;52.354;4.992;2022-07-22T00:06:14;18.00;81.90
68217;DHT22;55037;52.354;4.992;2022-07-22T00:08:41;18.00;81.80
68217;DHT22;55037;52.354;4.992;2022-07-22T00:11:09;18.00;82.00
68217;DHT22;55037;52.354;4.992;2022-07-22T00:13:36;18.00;82.90
68217;DHT22;55037;52.354;4.992;2022-07-22T00:16:03;18.00;81.90
68217;DHT22;55037;52.354;4.992;2022-07-22T00:18:31;18.00;81.70
68217;DHT22;55037;52.354;4.992;2022-07-22T00:20:58;18.00;81.60
68217;DHT22;55037;52.354;4.992;2022-07-22T00:23:25;18.00;81.90
68217;DHT22;55037;52.354;4.992;2022-07-22T00:25:53;18.00;81.90
68217;DHT22;55037;52.354;4.992;2022-07-22T00:28:20;18.00;81.20
68217;DHT22;55037;52.354;4.992;2022-07-22T00:30:48;18.00;81.90
68217;DHT22;55037;52.354;4.992;2022-07-22T00:33:21;18.10;82.10
68217;DHT22;55037;52.354;4.992;2022-07-22T00:35:50;18.10;81.60
68217;DHT22;55037;52.354;4.992;2022-07-22T00:38:17;18.10;81.40
68217;DHT22;55037;52.354;4.992;2022-07-22T00:40:44;18.00;81.30
68217;DHT22;55037;52.354;4.992;2022-07-22T00:43:12;18.10;81.40
68217;DHT22;55037;52.354;4.992;2022-07-22T00:45:39;18.10;81.60
68217;DHT22;55037;52.354;4.992;2022-07-22T00:48:07;18.10;81.30
68217;DHT22;55037;52.354;4.992;2022-07-22T00:50:35;18.00;81.30
68217;DHT22;55037;52.354;4.992;2022-07-22T00:53:03;18.00;81.50
68217;DHT22;55037;52.354;4.992;2022-07-22T00:55:33;18.00;80.90
68217;DHT22;55037;52.354;4.992;2022-07-22T00:58:02;18.00;81.00
68217;DHT22;55037;52.354;4.992;2022-07-22T01:00:30;18.00;81.00
68217;DHT22;55037;52.354;4.992;2022-07-22T01:02:57;18.00;80.70
68217;DHT22;55037;52.354;4.992;2022-07-22T01:05:24;18.00;80.60
68217;DHT22;55037;52.354;4.992;2022-07-22T01:07:51;18.00;80.70
68217;DHT22;55037;52.354;4.992;2022-07-22T01:10:19;18.00;80.70
68217;DHT22;55037;52.354;4.992;2022-07-22T01:12:46;18.00;81.00
68217;DHT22;55037;52.354;4.992;2022-07-22T01:15:13;18.00;81.00
68217;DHT22;55037;52.354;4.992;2022-07-22T01:17:41;18.00;81.30
68217;DHT22;55037;52.354;4.992;2022-07-22T01:20:08;18.00;81.20
68217;DHT22;55037;52.354;4.992;2022-07-22T01:22:37;18.00;81.10
68217;DHT22;55037;52.354;4.992;2022-07-22T01:25:05;18.00;81.10
68217;DHT22;55037;52.354;4.992;2022-07-22T01:27:33;18.00;81.50
68217;DHT22;55037;52.354;4.992;2022-07-22T01:30:00;18.00;81.60
68217;DHT22;55037;52.354;4.992;2022-07-22T01:32:28;18.00;81.50
68217;DHT22;55037;52.354;4.992;2022-07-22T01:34:55;18.00;81.30
68217;DHT22;55037;52.354;4.992;2022-07-22T01:37:23;18.00;81.40
68217;DHT22;55037;52.354;4.992;2022-07-22T01:39:50;18.10;81.50
68217;DHT22;55037;52.354;4.992;2022-07-22T01:42:18;18.10;81.30
68217;DHT22;55037;52.354;4.992;2022-07-22T01:44:46;18.10;81.10
68217;DHT22;55037;52.354;4.992;2022-07-22T01:47:16;18.10;81.10
68217;DHT22;55037;52.354;4.992;2022-07-22T01:49:43;18.10;81.40
68217;DHT22;55037;52.354;4.992;2022-07-22T01:52:11;18.10;81.30
68217;DHT22;55037;52.354;4.992;2022-07-22T01:54:40;18.10;81.30
68217;DHT22;55037;52.354;4.992;2022-07-22T01:57:07;18.10;81.20
68217;DHT22;55037;52.354;4.992;2022-07-22T01:59:43;18.10;81.40
68217;DHT22;55037;52.354;4.992;2022-07-22T02:02:10;18.10;81.40
68217;DHT22;55037;52.354;4.992;2022-07-22T02:04:37;18.10;81.60
68217;DHT22;55037;52.354;4.992;2022-07-22T02:07:05;18.10;81.60
68217;DHT22;55037;52.354;4.992;2022-07-22T02:09:32;18.10;81.80
68217;DHT22;55037;52.354;4.992;2022-07-22T02:12:00;18.10;81.80
68217;DHT22;55037;52.354;4.992;2022-07-22T02:14:30;18.10;81.90
68217;DHT22;55037;52.354;4.992;2022-07-22T02:16:58;18.10;82.00
68217;DHT22;55037;52.354;4.992;2022-07-22T02:19:25;18.20;82.00
68217;DHT22;55037;52.354;4.992;2022-07-22T02:21:52;18.10;81.80
68217;DHT22;55037;52.354;4.992;2022-07-22T02:24:20;18.10;81.70
68217;DHT22;55037;52.354;4.992;2022-07-22T02:26:47;18.10;81.90
68217;DHT22;55037;52.354;4.992;2022-07-22T02:29:14;18.10;81.90
68217;DHT22;55037;52.354;4.992;2022-07-22T02:31:42;18.10;81.80
68217;DHT22;55037;52.354;4.992;2022-07-22T02:34:09;18.10;81.80
68217;DHT22;55037;52.354;4.992;2022-07-22T02:36:38;18.10;81.80
68217;DHT22;55037;52.354;4.992;2022-07-22T02:39:05;18.10;81.50
68217;DHT22;55037;52.354;4.992;2022-07-22T02:41:33;18.00;81.50
68217;DHT22;55037;52.354;4.992;2022-07-22T02:44:00;18.00;81.50
68217;DHT22;55037;52.354;4.992;2022-07-22T02:46:28;18.00;81.30
68217;DHT22;55037;52.354;4.992;2022-07-22T02:49:00;17.90;81.20
68217;DHT22;55037;52.354;4.992;2022-07-22T02:51:29;17.90;80.90
68217;DHT22;55037;52.354;4.992;2022-07-22T02:53:56;17.90;80.90
68217;DHT22;55037;52.354;4.992;2022-07-22T02:56:24;17.90;81.20
68217;DHT22;55037;52.354;4.992;2022-07-22T02:58:51;18.00;81.10
68217;DHT22;55037;52.354;4.992;2022-07-22T03:01:21;17.90;80.50
68217;DHT22;55037;52.354;4.992;2022-07-22T03:03:53;18.00;80.50
68217;DHT22;55037;52.354;4.992;2022-07-22T03:06:22;17.90;80.50
68217;DHT22;55037;52.354;4.992;2022-07-22T03:09:02;17.90;80.30
68217;DHT22;55037;52.354;4.992;2022-07-22T03:11:32;18.00;79.90
68217;DHT22;55037;52.354;4.992;2022-07-22T03:14:02;18.00;79.80
68217;DHT22;55037;52.354;4.992;2022-07-22T03:16:29;18.00;79.60
68217;DHT22;55037;52.354;4.992;2022-07-22T03:18:57;18.00;79.60
68217;DHT22;55037;52.354;4.992;2022-07-22T03:21:25;18.00;78.90
68217;DHT22;55037;52.354;4.992;2022-07-22T03:23:53;17.90;78.60
68217;DHT22;55037;52.354;4.992;2022-07-22T03:26:21;18.00;78.80
68217;DHT22;55037;52.354;4.992;2022-07-22T03:28:49;17.90;78.70
68217;DHT22;55037;52.354;4.992;2022-07-22T03:31:17;17.90;78.80
68217;DHT22;55037;52.354;4.992;2022-07-22T03:33:44;17.90;78.40
68217;DHT22;55037;52.354;4.992;2022-07-22T03:36:12;17.90;78.40
68217;DHT22;55037;52.354;4.992;2022-07-22T03:38:41;17.90;78.30
68217;DHT22;55037;52.354;4.992;2022-07-22T03:41:09;17.90;78.50
68217;DHT22;55037;52.354;4.992;2022-07-22T03:43:36;17.90;78.70
68217;DHT22;55037;52.354;4.992;2022-07-22T03:46:03;17.90;78.80
68217;DHT22;55037;52.354;4.992;2022-07-22T03:48:31;17.90;78.70
68217;DHT22;55037;52.354;4.992;2022-07-22T03:50:59;17.90;78.60
68217;DHT22;55037;52.354;4.992;2022-07-22T03:53:27;17.90;78.70
68217;DHT22;55037;52.354;4.992;2022-07-22T03:55:55;18.00;78.70
68217;DHT22;55037;52.354;4.992;2022-07-22T03:58:23;18.00;78.60
68217;DHT22;55037;52.354;4.992;2022-07-22T04:00:51;18.00;78.30
68217;DHT22;55037;52.354;4.992;2022-07-22T04:03:19;18.00;78.60
68217;DHT22;55037;52.354;4.992;2022-07-22T04:06:06;18.00;78.70
68217;DHT22;55037;52.354;4.992;2022-07-22T04:08:50;18.10;78.10
68217;DHT22;55037;52.354;4.992;2022-07-22T04:11:17;18.10;78.00
68217;DHT22;55037;52.354;4.992;2022-07-22T04:13:45;18.10;77.80
68217;DHT22;55037;52.354;4.992;2022-07-22T04:16:12;18.20;77.70
68217;DHT22;55037;52.354;4.992;2022-07-22T04:18:48;18.20;76.70
68217;DHT22;55037;52.354;4.992;2022-07-22T04:21:26;18.20;77.40
68217;DHT22;55037;52.354;4.992;2022-07-22T04:23:57;18.20;77.20
68217;DHT22;55037;52.354;4.992;2022-07-22T04:26:30;18.20;77.10
68217;DHT22;55037;52.354;4.992;2022-07-22T04:28:58;18.30;77.00
68217;DHT22;55037;52.354;4.992;2022-07-22T04:31:28;18.30;76.40
68217;DHT22;55037;52.354;4.992;2022-07-22T04:34:03;18.30;76.10
68217;DHT22;55037;52.354;4.992;2022-07-22T04:36:31;18.30;75.70
68217;DHT22;55037;52.354;4.992;2022-07-22T04:38:59;18.40;75.80
68217;DHT22;55037;52.354;4.992;2022-07-22T04:41:27;18.40;75.50
68217;DHT22;55037;52.354;4.992;2022-07-22T04:43:55;18.40;75.30
68217;DHT22;55037;52.354;4.992;2022-07-22T04:46:24;18.50;75.20
68217;DHT22;55037;52.354;4.992;2022-07-22T04:48:53;18.50;75.30
68217;DHT22;55037;52.354;4.992;2022-07-22T04:51:21;18.50;75.60
68217;DHT22;55037;52.354;4.992;2022-07-22T04:53:52;18.60;75.20
68217;DHT22;55037;52.354;4.992;2022-07-22T04:56:21;18.60;74.80
68217;DHT22;55037;52.354;4.992;2022-07-22T04:58:50;18.70;74.60
68217;DHT22;55037;52.354;4.992;2022-07-22T05:01:20;18.60;75.00
68217;DHT22;55037;52.354;4.992;2022-07-22T05:03:49;18.70;75.30
68217;DHT22;55037;52.354;4.992;2022-07-22T05:06:18;18.80;75.10
68217;DHT22;55037;52.354;4.992;2022-07-22T05:08:46;18.90;74.60
68217;DHT22;55037;52.354;4.992;2022-07-22T05:11:13;18.90;73.70
68217;DHT22;55037;52.354;4.992;2022-07-22T05:13:41;19.00;73.40
68217;DHT22;55037;52.354;4.992;2022-07-22T05:16:09;19.00;73.00
68217;DHT22;55037;52.354;4.992;2022-07-22T05:18:38;19.00;72.80
68217;DHT22;55037;52.354;4.992;2022-07-22T05:21:08;19.00;72.90
68217;DHT22;55037;52.354;4.992;2022-07-22T05:23:35;19.00;72.80
68217;DHT22;55037;52.354;4.992;2022-07-22T05:26:04;19.10;72.70
68217;DHT22;55037;52.354;4.992;2022-07-22T05:28:33;19.10;72.10
68217;DHT22;55037;52.354;4.992;2022-07-22T05:31:01;19.10;72.20
68217;DHT22;55037;52.354;4.992;2022-07-22T05:33:31;19.20;71.80
68217;DHT22;55037;52.354;4.992;2022-07-22T05:36:17;19.30;70.90
68217;DHT22;55037;52.354;4.992;2022-07-22T05:38:47;19.30;70.80
68217;DHT22;55037;52.354;4.992;2022-07-22T05:41:15;19.30;70.10
68217;DHT22;55037;52.354;4.992;2022-07-22T05:43:42;19.30;70.20
68217;DHT22;55037;52.354;4.992;2022-07-22T05:46:10;19.30;70.00
68217;DHT22;55037;52.354;4.992;2022-07-22T05:48:38;19.40;70.00
68217;DHT22;55037;52.354;4.992;2022-07-22T05:51:13;19.40;70.00
68217;DHT22;55037;52.354;4.992;2022-07-22T05:53:43;19.50;69.90
68217;DHT22;55037;52.354;4.992;2022-07-22T05:56:12;19.60;68.80
68217;DHT22;55037;52.354;4.992;2022-07-22T05:58:41;19.70;69.10
68217;DHT22;55037;52.354;4.992;2022-07-22T06:01:09;19.80;68.90
68217;DHT22;55037;52.354;4.992;2022-07-22T06:03:38;19.90;69.40
68217;DHT22;55037;52.354;4.992;2022-07-22T06:06:05;20.00;68.00
68217;DHT22;55037;52.354;4.992;2022-07-22T06:08:36;20.10;68.50
68217;DHT22;55037;52.354;4.992;2022-07-22T06:11:04;20.20;68.10
68217;DHT22;55037;52.354;4.992;2022-07-22T06:13:32;20.20;67.60
68217;DHT22;55037;52.354;4.992;2022-07-22T06:15:59;20.40;67.00
68217;DHT22;55037;52.354;4.992;2022-07-22T06:18:27;20.60;66.60
68217;DHT22;55037;52.354;4.992;2022-07-22T06:20:54;20.70;66.00
68217;DHT22;55037;52.354;4.992;2022-07-22T06:23:25;20.70;65.50
68217;DHT22;55037;52.354;4.992;2022-07-22T06:25:52;20.80;65.30
68217;DHT22;55037;52.354;4.992;2022-07-22T06:28:30;20.80;65.00
68217;DHT22;55037;52.354;4.992;2022-07-22T06:30:58;20.80;64.70
68217;DHT22;55037;52.354;4.992;2022-07-22T06:33:27;20.80;65.40
68217;DHT22;55037;52.354;4.992;2022-07-22T06:35:55;20.80;65.70
68217;DHT22;55037;52.354;4.992;2022-07-22T06:38:24;20.90;65.20
68217;DHT22;55037;52.354;4.992;2022-07-22T06:41:16;21.00;65.10
68217;DHT22;55037;52.354;4.992;2022-07-22T06:44:13;21.10;64.30
68217;DHT22;55037;52.354;4.992;2022-07-22T06:47:00;21.20;63.50
68217;DHT22;55037;52.354;4.992;2022-07-22T06:49:28;21.10;63.20
68217;DHT22;55037;52.354;4.992;2022-07-22T06:51:55;21.10;62.60
68217;DHT22;55037;52.354;4.992;2022-07-22T06:54:23;21.20;62.00
68217;DHT22;55037;52.354;4.992;2022-07-22T06:56:52;21.40;62.20
68217;DHT22;55037;52.354;4.992;2022-07-22T06:59:25;21.60;61.30
68217;DHT22;55037;52.354;4.992;2022-07-22T07:01:52;21.70;60.40
68217;DHT22;55037;52.354;4.992;2022-07-22T07:04:20;21.80;60.30
68217;DHT22;55037;52.354;4.992;2022-07-22T07:06:49;22.00;60.30
68217;DHT22;55037;52.354;4.992;2022-07-22T07:09:31;22.30;58.60
68217;DHT22;55037;52.354;4.992;2022-07-22T07:12:20;22.50;57.00
68217;DHT22;55037;52.354;4.992;2022-07-22T07:15:06;22.60;56.70
68217;DHT22;55037;52.354;4.992;2022-07-22T07:17:56;22.90;56.20
68217;DHT22;55037;52.354;4.992;2022-07-22T07:20:24;23.10;55.50
68217;DHT22;55037;52.354;4.992;2022-07-22T07:22:52;23.30;55.00
68217;DHT22;55037;52.354;4.992;2022-07-22T07:25:20;23.50;54.50
68217;DHT22;55037;52.354;4.992;2022-07-22T07:27:53;23.80;54.70
68217;DHT22;55037;52.354;4.992;2022-07-22T07:30:33;24.00;52.50
68217;DHT22;55037;52.354;4.992;2022-07-22T07:33:00;24.10;52.30
68217;DHT22;55037;52.354;4.992;2022-07-22T07:35:29;24.30;51.70
68217;DHT22;55037;52.354;4.992;2022-07-22T07:37:58;24.50;50.80
68217;DHT22;55037;52.354;4.992;2022-07-22T07:40:25;24.70;49.60
68217;DHT22;55037;52.354;4.992;2022-07-22T07:42:53;24.90;49.10
68217;DHT22;55037;52.354;4.992;2022-07-22T07:45:29;24.90;48.90
68217;DHT22;55037;52.354;4.992;2022-07-22T07:47:57;25.00;47.80
68217;DHT22;55037;52.354;4.992;2022-07-22T07:50:24;25.10;47.60
68217;DHT22;55037;52.354;4.992;2022-07-22T07:52:52;25.20;47.40
68217;DHT22;55037;52.354;4.992;2022-07-22T07:55:21;25.40;46.90
68217;DHT22;55037;52.354;4.992;2022-07-22T07:57:50;25.40;45.80
68217;DHT22;55037;52.354;4.992;2022-07-22T08:00:23;25.00;46.20
68217;DHT22;55037;52.354;4.992;2022-07-22T08:02:52;24.70;46.30
68217;DHT22;55037;52.354;4.992;2022-07-22T08:05:20;24.60;47.30
68217;DHT22;55037;52.354;4.992;2022-07-22T08:07:50;24.60;47.30
68217;DHT22;55037;52.354;4.992;2022-07-22T08:10:19;24.50;46.70
68217;DHT22;55037;52.354;4.992;2022-07-22T08:13:35;24.30;48.60
68217;DHT22;55037;52.354;4.992;2022-07-22T08:16:16;24.30;48.40
68217;DHT22;55037;52.354;4.992;2022-07-22T08:18:47;24.40;47.90
68217;DHT22;55037;52.354;4.992;2022-07-22T08:21:15;24.60;46.80
68217;DHT22;55037;52.354;4.992;2022-07-22T08:23:54;24.90;45.80
68217;DHT22;55037;52.354;4.992;2022-07-22T08:26:22;24.60;45.60
68217;DHT22;55037;52.354;4.992;2022-07-22T08:28:57;24.40;46.40
68217;DHT22;55037;52.354;4.992;2022-07-22T08:31:27;24.10;46.50
68217;DHT22;55037;52.354;4.992;2022-07-22T08:33:57;24.00;48.10
68217;DHT22;55037;52.354;4.992;2022-07-22T08:36:27;24.40;47.60
68217;DHT22;55037;52.354;4.992;2022-07-22T08:38:54;24.90;46.40
68217;DHT22;55037;52.354;4.992;2022-07-22T08:41:23;25.30;45.00
68217;DHT22;55037;52.354;4.992;2022-07-22T08:43:51;25.50;45.20
68217;DHT22;55037;52.354;4.992;2022-07-22T08:46:19;25.20;46.20
68217;DHT22;55037;52.354;4.992;2022-07-22T08:49:05;25.20;45.30
68217;DHT22;55037;52.354;4.992;2022-07-22T08:51:50;25.20;45.60
68217;DHT22;55037;52.354;4.992;2022-07-22T08:54:23;25.40;45.50
68217;DHT22;55037;52.354;4.992;2022-07-22T08:56:51;25.80;45.50
68217;DHT22;55037;52.354;4.992;2022-07-22T08:59:20;26.00;44.10
68217;DHT22;55037;52.354;4.992;2022-07-22T09:02:08;26.10;44.60
68217;DHT22;55037;52.354;4.992;2022-07-22T09:04:58;26.20;43.80
68217;DHT22;55037;52.354;4.992;2022-07-22T09:07:46;26.40;42.90
68217;DHT22;55037;52.354;4.992;2022-07-22T09:10:23;27.00;42.70
68217;DHT22;55037;52.354;4.992;2022-07-22T09:13:14;27.70;41.70
68217;DHT22;55037;52.354;4.992;2022-07-22T09:15:55;28.70;39.80
68217;DHT22;55037;52.354;4.992;2022-07-22T09:18:49;28.90;36.80
68217;DHT22;55037;52.354;4.992;2022-07-22T09:21:42;29.00;37.00
68217;DHT22;55037;52.354;4.992;2022-07-22T09:24:29;29.10;36.70
68217;DHT22;55037;52.354;4.992;2022-07-22T09:27:27;29.10;36.40
68217;DHT22;55037;52.354;4.992;2022-07-22T09:30:21;29.00;35.80
68217;DHT22;55037;52.354;4.992;2022-07-22T09:33:03;29.60;35.70
68217;DHT22;55037;52.354;4.992;2022-07-22T09:35:40;30.20;34.60
68217;DHT22;55037;52.354;4.992;2022-07-22T09:38:17;30.20;33.70
68217;DHT22;55037;52.354;4.992;2022-07-22T09:40:47;30.50;34.30
68217;DHT22;55037;52.354;4.992;2022-07-22T09:43:18;31.00;33.20
68217;DHT22;55037;52.354;4.992;2022-07-22T09:45:54;31.50;32.00
68217;DHT22;55037;52.354;4.992;2022-07-22T09:48:42;31.70;32.80
68217;DHT22;55037;52.354;4.992;2022-07-22T09:51:30;32.00;30.90
68217;DHT22;55037;52.354;4.992;2022-07-22T09:54:03;31.20;30.70
68217;DHT22;55037;52.354;4.992;2022-07-22T09:56:32;30.30;33.10
68217;DHT22;55037;52.354;4.992;2022-07-22T09:59:00;29.70;34.00
68217;DHT22;55037;52.354;4.992;2022-07-22T10:01:33;29.30;34.00
68217;DHT22;55037;52.354;4.992;2022-07-22T10:04:01;29.00;35.40
68217;DHT22;55037;52.354;4.992;2022-07-22T10:06:31;29.00;35.90
68217;DHT22;55037;52.354;4.992;2022-07-22T10:08:58;29.10;37.00
68217;DHT22;55037;52.354;4.992;2022-07-22T10:11:37;29.30;35.50
68217;DHT22;55037;52.354;4.992;2022-07-22T10:14:07;29.10;35.50
68217;DHT22;55037;52.354;4.992;2022-07-22T10:16:36;28.90;36.30
68217;DHT22;55037;52.354;4.992;2022-07-22T10:19:03;28.60;36.60
68217;DHT22;55037;52.354;4.992;2022-07-22T10:21:34;28.40;36.90
68217;DHT22;55037;52.354;4.992;2022-07-22T10:24:13;28.20;37.10
68217;DHT22;55037;52.354;4.992;2022-07-22T10:26:57;28.10;38.30
68217;DHT22;55037;52.354;4.992;2022-07-22T10:40:23;28.80;37.60
68217;DHT22;55037;52.354;4.992;2022-07-22T10:45:38;29.10;35.30
68217;DHT22;55037;52.354;4.992;2022-07-22T10:48:07;28.80;35.60
68217;DHT22;55037;52.354;4.992;2022-07-22T10:53:10;29.30;35.60
68217;DHT22;55037;52.354;4.992;2022-07-22T10:55:57;29.50;35.30
68217;DHT22;55037;52.354;4.992;2022-07-22T11:01:05;29.50;35.00
68217;DHT22;55037;52.354;4.992;2022-07-22T11:03:33;29.40;34.90
68217;DHT22;55037;52.354;4.992;2022-07-22T11:08:45;28.80;36.50
68217;DHT22;55037;52.354;4.992;2022-07-22T11:11:12;28.60;37.40
68217;DHT22;55037;52.354;4.992;2022-07-22T11:13:43;28.70;37.20
68217;DHT22;55037;52.354;4.992;2022-07-22T11:16:22;28.90;36.90
68217;DHT22;55037;52.354;4.992;2022-07-22T11:19:00;29.00;36.00
68217;DHT22;55037;52.354;4.992;2022-07-22T11:21:30;29.20;34.60
68217;DHT22;55037;52.354;4.992;2022-07-22T11:24:00;29.20;36.00
68217;DHT22;55037;52.354;4.992;2022-07-22T11:26:47;29.20;35.60
68217;DHT22;55037;52.354;4.992;2022-07-22T11:31:53;29.40;35.50
68217;DHT22;55037;52.354;4.992;2022-07-22T11:34:21;30.10;35.10
68217;DHT22;55037;52.354;4.992;2022-07-22T11:36:50;31.60;33.30
68217;DHT22;55037;52.354;4.992;2022-07-22T11:39:20;31.80;31.20
68217;DHT22;55037;52.354;4.992;2022-07-22T11:41:48;31.30;32.20
68217;DHT22;55037;52.354;4.992;2022-07-22T11:44:24;30.80;33.80
68217;DHT22;55037;52.354;4.992;2022-07-22T11:46:52;30.10;33.80
68217;DHT22;55037;52.354;4.992;2022-07-22T11:49:21;29.60;34.80
68217;DHT22;55037;52.354;4.992;2022-07-22T11:51:48;29.50;35.60
68217;DHT22;55037;52.354;4.992;2022-07-22T11:54:16;29.40;35.00
68217;DHT22;55037;52.354;4.992;2022-07-22T11:56:43;29.20;36.00
68217;DHT22;55037;52.354;4.992;2022-07-22T11:59:15;29.00;35.70
68217;DHT22;55037;52.354;4.992;2022-07-22T12:01:46;28.50;37.20
68217;DHT22;55037;52.354;4.992;2022-07-22T12:04:19;28.10;37.80
68217;DHT22;55037;52.354;4.992;2022-07-22T12:06:47;27.60;39.40
68217;DHT22;55037;52.354;4.992;2022-07-22T12:09:20;27.50;40.00
68217;DHT22;55037;52.354;4.992;2022-07-22T12:11:50;27.30;39.50
68217;DHT22;55037;52.354;4.992;2022-07-22T12:14:23;27.10;40.60
68217;DHT22;55037;52.354;4.992;2022-07-22T12:17:08;27.00;41.00
68217;DHT22;55037;52.354;4.992;2022-07-22T12:19:38;26.80;41.10
68217;DHT22;55037;52.354;4.992;2022-07-22T12:22:11;26.60;41.40
68217;DHT22;55037;52.354;4.992;2022-07-22T12:24:43;26.50;41.80
68217;DHT22;55037;52.354;4.992;2022-07-22T12:27:20;26.50;42.40
68217;DHT22;55037;52.354;4.992;2022-07-22T12:29:48;26.70;42.70
68217;DHT22;55037;52.354;4.992;2022-07-22T12:34:57;27.20;40.60
68217;DHT22;55037;52.354;4.992;2022-07-22T12:37:28;27.50;40.90
68217;DHT22;55037;52.354;4.992;2022-07-22T12:40:11;28.20;39.90
68217;DHT22;55037;52.354;4.992;2022-07-22T12:42:45;28.80;38.30
68217;DHT22;55037;52.354;4.992;2022-07-22T12:45:16;28.90;37.50
68217;DHT22;55037;52.354;4.992;2022-07-22T12:47:51;29.10;36.90
68217;DHT22;55037;52.354;4.992;2022-07-22T12:50:31;29.30;36.30
68217;DHT22;55037;52.354;4.992;2022-07-22T12:55:49;28.40;36.90
68217;DHT22;55037;52.354;4.992;2022-07-22T12:58:20;27.80;38.40
68217;DHT22;55037;52.354;4.992;2022-07-22T13:00:54;27.40;39.60
68217;DHT22;55037;52.354;4.992;2022-07-22T13:03:22;27.30;40.10
68217;DHT22;55037;52.354;4.992;2022-07-22T13:05:52;27.70;40.20
68217;DHT22;55037;52.354;4.992;2022-07-22T13:08:21;28.30;38.90
68217;DHT22;55037;52.354;4.992;2022-07-22T13:10:49;29.20;36.70
68217;DHT22;55037;52.354;4.992;2022-07-22T13:13:17;29.70;35.90
68217;DHT22;55037;52.354;4.992;2022-07-22T13:15:45;29.70;34.90
68217;DHT22;55037;52.354;4.992;2022-07-22T13:18:13;29.40;36.40
68217;DHT22;55037;52.354;4.992;2022-07-22T13:20:40;29.70;35.90
68217;DHT22;55037;52.354;4.992;2022-07-22T13:23:08;30.00;34.70
68217;DHT22;55037;52.354;4.992;2022-07-22T13:25:35;30.20;34.00
68217;DHT22;55037;52.354;4.992;2022-07-22T13:28:03;30.60;33.70
68217;DHT22;55037;52.354;4.992;2022-07-22T13:30:31;30.80;32.40
68217;DHT22;55037;52.354;4.992;2022-07-22T13:32:59;30.40;32.90
68217;DHT22;55037;52.354;4.992;2022-07-22T13:35:26;29.90;34.20
68217;DHT22;55037;52.354;4.992;2022-07-22T13:37:53;29.30;35.10
68217;DHT22;55037;52.354;4.992;2022-07-22T13:40:21;29.10;35.80
68217;DHT22;55037;52.354;4.992;2022-07-22T13:42:48;29.00;35.90
68217;DHT22;55037;52.354;4.992;2022-07-22T13:45:15;28.80;36.20
68217;DHT22;55037;52.354;4.992;2022-07-22T13:47:42;28.40;36.70
68217;DHT22;55037;52.354;4.992;2022-07-22T13:50:09;28.20;37.30
68217;DHT22;55037;52.354;4.992;2022-07-22T13:52:37;28.20;37.70
68217;DHT22;55037;52.354;4.992;2022-07-22T13:55:05;28.30;36.50
68217;DHT22;55037;52.354;4.992;2022-07-22T13:57:33;28.40;37.30
68217;DHT22;55037;52.354;4.992;2022-07-22T14:00:01;28.40;37.20
68217;DHT22;55037;52.354;4.992;2022-07-22T14:02:29;28.40;37.00
68217;DHT22;55037;52.354;4.992;2022-07-22T14:04:56;28.70;36.80
68217;DHT22;55037;52.354;4.992;2022-07-22T14:07:24;29.20;36.30
68217;DHT22;55037;52.354;4.992;2022-07-22T14:09:51;29.80;35.50
68217;DHT22;55037;52.354;4.992;2022-07-22T14:12:18;30.10;34.30
68217;DHT22;55037;52.354;4.992;2022-07-22T14:14:45;29.90;33.90
68217;DHT22;55037;52.354;4.992;2022-07-22T14:17:12;29.80;34.60
68217;DHT22;55037;52.354;4.992;2022-07-22T14:19:41;29.60;34.40
68217;DHT22;55037;52.354;4.992;2022-07-22T14:22:08;29.70;34.70
68217;DHT22;55037;52.354;4.992;2022-07-22T14:24:35;29.80;34.90
68217;DHT22;55037;52.354;4.992;2022-07-22T14:27:02;29.90;34.40
68217;DHT22;55037;52.354;4.992;2022-07-22T14:29:29;29.90;35.10
68217;DHT22;55037;52.354;4.992;2022-07-22T14:31:57;30.50;34.20
68217;DHT22;55037;52.354;4.992;2022-07-22T14:34:24;31.30;32.80
68217;DHT22;55037;52.354;4.992;2022-07-22T14:36:51;31.70;31.70
68217;DHT22;55037;52.354;4.992;2022-07-22T14:39:19;31.60;31.50
68217;DHT22;55037;52.354;4.992;2022-07-22T14:41:46;31.70;31.90
68217;DHT22;55037;52.354;4.992;2022-07-22T14:44:14;32.40;31.10
68217;DHT22;55037;52.354;4.992;2022-07-22T14:46:41;33.10;30.30
68217;DHT22;55037;52.354;4.992;2022-07-22T14:49:08;33.40;29.10
68217;DHT22;55037;52.354;4.992;2022-07-22T14:51:42;33.30;29.30
68217;DHT22;55037;52.354;4.992;2022-07-22T14:54:10;32.80;28.80
68217;DHT22;55037;52.354;4.992;2022-07-22T14:56:39;32.30;29.80
68217;DHT22;55037;52.354;4.992;2022-07-22T14:59:07;32.00;30.30
68217;DHT22;55037;52.354;4.992;2022-07-22T15:01:34;31.70;30.50
68217;DHT22;55037;52.354;4.992;2022-07-22T15:04:02;31.60;30.80
68217;DHT22;55037;52.354;4.992;2022-07-22T15:06:29;31.40;31.00
68217;DHT22;55037;52.354;4.992;2022-07-22T15:08:57;31.30;31.20
68217;DHT22;55037;52.354;4.992;2022-07-22T15:11:24;31.50;31.40
68217;DHT22;55037;52.354;4.992;2022-07-22T15:13:51;32.10;30.90
68217;DHT22;55037;52.354;4.992;2022-07-22T15:16:18;33.00;29.80
68217;DHT22;55037;52.354;4.992;2022-07-22T15:18:46;33.20;28.50
68217;DHT22;55037;52.354;4.992;2022-07-22T15:21:13;32.80;28.80
68217;DHT22;55037;52.354;4.992;2022-07-22T15:23:40;32.20;29.50
68217;DHT22;55037;52.354;4.992;2022-07-22T15:26:08;31.80;30.00
68217;DHT22;55037;52.354;4.992;2022-07-22T15:28:35;31.50;30.50
68217;DHT22;55037;52.354;4.992;2022-07-22T15:31:04;31.10;31.20
68217;DHT22;55037;52.354;4.992;2022-07-22T15:33:32;30.90;31.70
68217;DHT22;55037;52.354;4.992;2022-07-22T15:36:06;30.90;31.60
68217;DHT22;55037;52.354;4.992;2022-07-22T15:38:34;31.40;31.70
68217;DHT22;55037;52.354;4.992;2022-07-22T15:41:03;32.00;30.30
68217;DHT22;55037;52.354;4.992;2022-07-22T15:43:30;32.30;29.90
68217;DHT22;55037;52.354;4.992;2022-07-22T15:45:57;32.40;29.50
68217;DHT22;55037;52.354;4.992;2022-07-22T15:48:25;32.10;29.70
68217;DHT22;55037;52.354;4.992;2022-07-22T15:50:52;31.70;30.40
68217;DHT22;55037;52.354;4.992;2022-07-22T15:53:24;31.30;30.60
68217;DHT22;55037;52.354;4.992;2022-07-22T15:55:52;31.00;31.60
68217;DHT22;55037;52.354;4.992;2022-07-22T15:58:19;30.70;31.80
68217;DHT22;55037;52.354;4.992;2022-07-22T16:01:05;30.40;32.30
68217;DHT22;55037;52.354;4.992;2022-07-22T16:03:32;29.90;33.20
68217;DHT22;55037;52.354;4.992;2022-07-22T16:05:59;29.60;34.00
68217;DHT22;55037;52.354;4.992;2022-07-22T16:08:30;29.60;33.80
68217;DHT22;55037;52.354;4.992;2022-07-22T16:10:59;29.30;34.70
68217;DHT22;55037;52.354;4.992;2022-07-22T16:13:26;29.30;34.90
68217;DHT22;55037;52.354;4.992;2022-07-22T16:15:53;29.60;34.40
68217;DHT22;55037;52.354;4.992;2022-07-22T16:18:20;29.80;33.60
68217;DHT22;55037;52.354;4.992;2022-07-22T16:20:48;29.70;32.80